Time;durP1;ratioP1;P1;durP2;ratioP2;P2;SDS_P1;SDS_P2;PMS_P1;PMS_P2;Temp;Humidity;BMP_temperature;BMP_pressure;BME280_temperature;BME280_humidity;BME280_pressure;Samples;Min_cycle;Max_cycle;Signal;HPM_P1;HPM_P2
2022/01/27 00:01:49;;;;;;;19.00;11.73;;;4.40;66.80;;;-142.21;100.00;112049.66;6244949;23;20255;-77
2022/01/27 00:04:21;;;;;;;17.98;11.27;;;4.50;66.90;;;-142.21;100.00;112049.66;6244030;23;20248;-75
2022/01/27 00:06:49;;;;;;;24.33;12.55;;;4.50;67.00;;;-142.21;100.00;112049.66;6245043;23;20622;-75
2022/01/27 00:09:27;;;;;;;19.77;12.07;;;4.60;66.90;;;-142.21;100.00;112049.66;6243961;23;20200;-75
2022/01/27 00:11:54;;;;;;;23.00;12.93;;;4.60;67.80;;;-142.21;100.00;112049.66;6244911;23;20165;-80
2022/01/27 00:14:24;;;;;;;23.30;13.15;;;4.50;66.60;;;-142.21;100.00;112049.66;6244501;23;20174;-76
2022/01/27 00:16:58;;;;;;;20.52;12.95;;;4.50;66.90;;;-142.21;100.00;112049.66;6244562;22;20173;-75
2022/01/27 00:19:25;;;;;;;19.80;12.48;;;4.40;67.20;;;-142.21;100.00;112049.66;6244223;22;20172;-78
2022/01/27 00:21:53;;;;;;;24.75;13.57;;;4.40;67.10;;;-142.21;100.00;112049.66;6245128;22;20217;-76
2022/01/27 00:24:22;;;;;;;23.83;14.20;;;4.30;66.80;;;-142.21;100.00;112049.66;6244114;23;20177;-80
2022/01/27 00:26:49;;;;;;;27.02;15.10;;;4.30;67.20;;;-142.21;100.00;112049.66;6244590;23;20636;-78
2022/01/27 00:29:16;;;;;;;23.77;13.45;;;4.20;67.30;;;-142.21;100.00;112049.66;6244132;22;20177;-79
2022/01/27 00:31:44;;;;;;;24.77;13.65;;;4.20;67.40;;;-142.21;100.00;112049.66;6245278;23;20495;-76
2022/01/27 00:34:11;;;;;;;25.65;14.98;;;4.10;67.50;;;-142.21;100.00;112049.66;6244827;23;20626;-75
2022/01/27 00:36:38;;;;;;;25.25;14.20;;;4.10;67.70;;;-142.21;100.00;112049.66;6244344;22;20231;-78
2022/01/27 00:39:05;;;;;;;27.23;16.05;;;4.10;67.90;;;-142.21;100.00;112049.66;6258707;23;20187;-77
2022/01/27 00:41:34;;;;;;;24.30;14.95;;;4.20;67.50;;;-142.21;100.00;112049.66;6262245;23;20193;-76
2022/01/27 00:44:03;;;;;;;24.30;14.80;;;4.00;67.70;;;-142.21;100.00;112049.66;6246493;23;20169;-78
2022/01/27 00:46:32;;;;;;;27.58;14.65;;;4.00;67.80;;;-142.21;100.00;112049.66;6244343;23;20177;-80
2022/01/27 00:48:59;;;;;;;24.13;14.27;;;4.10;67.90;;;-142.21;100.00;112049.66;6244849;23;20177;-78
2022/01/27 00:51:30;;;;;;;27.15;16.13;;;4.00;68.00;;;-142.21;100.00;112049.66;6245238;23;20688;-78
2022/01/27 00:54:04;;;;;;;27.23;15.10;;;4.00;68.30;;;-142.21;100.00;112049.66;6245119;23;20208;-80
2022/01/27 00:56:39;;;;;;;30.27;15.43;;;4.00;68.00;;;-142.21;100.00;112049.66;6246872;22;20176;-77
2022/01/27 00:59:24;;;;;;;24.23;13.80;;;4.00;68.30;;;-142.21;100.00;112049.66;6247238;23;20211;-73
2022/01/27 01:02:00;;;;;;;25.90;15.30;;;4.10;67.80;;;-142.21;100.00;112049.66;6246020;23;20504;-77
2022/01/27 01:04:32;;;;;;;22.20;14.13;;;4.10;68.20;;;-142.21;100.00;112049.66;6246641;23;20183;-77
2022/01/27 01:06:59;;;;;;;25.05;15.68;;;4.10;67.20;;;-142.21;100.00;112049.66;6246028;22;20162;-74
2022/01/27 01:14:58;;;;;;;24.65;14.85;;;4.20;67.60;;;-142.21;100.00;112049.66;6246052;23;20493;-80
2022/01/27 01:20:39;;;;;;;29.25;15.45;;;4.20;68.00;;;-142.21;100.00;112049.66;6245345;22;20173;-75
2022/01/27 01:31:48;;;;;;;26.40;15.80;;;4.10;68.50;;;-142.21;100.00;112049.66;6246387;23;20156;-75
2022/01/27 01:34:19;;;;;;;22.75;14.77;;;4.10;67.50;;;-142.21;100.00;112049.66;6246127;23;20177;-79
2022/01/27 01:36:55;;;;;;;26.48;14.00;;;4.00;67.50;;;-142.21;100.00;112049.66;6246599;23;20188;-75
2022/01/27 01:39:23;;;;;;;24.38;14.48;;;4.00;67.50;;;-142.21;100.00;112049.66;6245881;23;20633;-80
2022/01/27 01:41:52;;;;;;;28.90;16.30;;;4.10;67.60;;;-142.21;100.00;112049.66;6246624;23;20208;-74
2022/01/27 01:44:20;;;;;;;28.23;15.57;;;4.10;67.60;;;-142.21;100.00;112049.66;6245238;23;20677;-77
2022/01/27 01:46:49;;;;;;;24.95;14.52;;;4.10;67.80;;;-142.21;100.00;112049.66;6246696;23;20181;-74
2022/01/27 01:49:16;;;;;;;26.17;15.95;;;4.10;67.80;;;-142.21;100.00;112049.66;6245389;23;20184;-75
2022/01/27 01:51:44;;;;;;;29.30;15.38;;;4.10;67.50;;;-142.21;100.00;112049.66;6246081;22;20208;-78
2022/01/27 01:54:13;;;;;;;27.80;15.45;;;4.10;67.60;;;-142.21;100.00;112049.66;6245717;23;20181;-76
2022/01/27 01:56:44;;;;;;;27.65;15.60;;;4.10;67.70;;;-142.21;100.00;112049.66;6246467;23;20185;-76
2022/01/27 01:59:12;;;;;;;26.30;15.45;;;4.10;67.50;;;-142.21;100.00;112049.66;6245853;23;20173;-74
2022/01/27 02:01:40;;;;;;;25.58;15.40;;;4.10;67.60;;;-142.21;100.00;112049.66;6245747;23;20263;-75
2022/01/27 02:04:11;;;;;;;25.10;15.02;;;4.10;67.50;;;-142.21;100.00;112049.66;6246050;23;20200;-75
2022/01/27 02:06:46;;;;;;;28.90;15.90;;;4.00;67.80;;;-142.21;100.00;112049.66;6245746;22;20172;-73
2022/01/27 02:09:23;;;;;;;25.00;15.30;;;4.00;67.90;;;-142.21;100.00;112049.66;6257548;22;20192;-76
2022/01/27 02:20:13;;;;;;;27.15;15.88;;;4.10;67.80;;;-142.21;100.00;112049.66;6246523;23;20223;-74
2022/01/27 02:22:41;;;;;;;29.05;16.95;;;4.20;68.30;;;-142.21;100.00;112049.66;6245436;23;20561;-76
2022/01/27 02:25:10;;;;;;;26.58;15.68;;;4.00;68.00;;;-142.21;100.00;112049.66;6246343;23;20344;-77
2022/01/27 02:27:39;;;;;;;27.98;16.20;;;4.00;68.30;;;-142.21;100.00;112049.66;6245320;23;20531;-75
2022/01/27 02:30:08;;;;;;;28.35;16.65;;;4.10;68.00;;;-142.21;100.00;112049.66;6245840;23;20181;-75
2022/01/27 02:32:35;;;;;;;29.20;16.80;;;4.10;68.00;;;-142.21;100.00;112049.66;6245765;23;20216;-78
2022/01/27 02:35:03;;;;;;;29.15;16.35;;;4.00;68.00;;;-142.21;100.00;112049.66;6245999;23;20223;-79
2022/01/27 02:37:32;;;;;;;26.52;15.75;;;4.00;68.00;;;-142.21;100.00;112049.66;6245714;23;20193;-80
2022/01/27 02:39:59;;;;;;;28.67;15.50;;;3.90;68.30;;;-142.21;100.00;112049.66;6245527;23;20169;-78
2022/01/27 02:42:34;;;;;;;29.42;15.93;;;3.90;68.40;;;-142.21;100.00;112049.66;6245294;23;20220;-79
2022/01/27 02:45:09;;;;;;;28.30;15.85;;;3.90;68.50;;;-142.21;100.00;112049.66;6245373;23;20172;-78
2022/01/27 02:47:36;;;;;;;27.35;16.70;;;3.90;68.60;;;-142.21;100.00;112049.66;6245808;23;20172;-76
2022/01/27 02:50:06;;;;;;;27.95;16.60;;;3.90;68.30;;;-142.21;100.00;112049.66;6246296;23;20177;-80
2022/01/27 02:52:37;;;;;;;28.80;15.95;;;3.90;68.40;;;-142.21;100.00;112049.66;6246913;23;20208;-77
2022/01/27 02:55:05;;;;;;;29.08;16.35;;;3.90;68.00;;;-142.21;100.00;112049.66;6245143;23;20169;-75
2022/01/27 02:57:33;;;;;;;28.35;15.85;;;3.90;68.80;;;-142.21;100.00;112049.66;6256561;23;20252;-78
2022/01/27 03:00:00;;;;;;;27.42;15.40;;;4.00;68.60;;;-142.21;100.00;112049.66;6260731;23;20181;-79
2022/01/27 03:02:27;;;;;;;24.13;15.45;;;4.00;68.20;;;-142.21;100.00;112049.66;6245394;23;20208;-80
2022/01/27 03:04:54;;;;;;;26.20;16.52;;;4.00;67.80;;;-142.21;100.00;112049.66;6261531;22;20602;-77
2022/01/27 03:07:22;;;;;;;28.10;16.08;;;3.90;67.40;;;-142.21;100.00;112049.66;6263863;23;20177;-77
2022/01/27 03:09:51;;;;;;;27.90;16.00;;;3.80;67.90;;;-142.21;100.00;112049.66;6257577;23;20205;-79
2022/01/27 03:12:23;;;;;;;27.70;15.65;;;3.80;68.20;;;-142.21;100.00;112049.66;6244622;23;20240;-78
2022/01/27 03:14:50;;;;;;;29.73;17.90;;;3.80;68.00;;;-142.21;100.00;112049.66;6245680;23;20583;-75
2022/01/27 03:17:18;;;;;;;25.73;15.45;;;3.70;68.20;;;-142.21;100.00;112049.66;6244560;23;20192;-79
2022/01/27 03:19:46;;;;;;;27.50;14.90;;;3.70;68.30;;;-142.21;100.00;112049.66;6245340;23;21123;-79
2022/01/27 03:22:13;;;;;;;27.08;15.55;;;3.70;68.10;;;-142.21;100.00;112049.66;6245073;23;20205;-75
2022/01/27 03:24:41;;;;;;;27.63;16.10;;;3.70;68.00;;;-142.21;100.00;112049.66;6245406;23;20181;-77
2022/01/27 03:27:17;;;;;;;29.33;16.40;;;3.70;68.10;;;-142.21;100.00;112049.66;6245111;23;20170;-76
2022/01/27 03:29:44;;;;;;;28.38;16.15;;;3.70;68.10;;;-142.21;100.00;112049.66;6246012;22;20504;-75
2022/01/27 03:32:12;;;;;;;27.80;15.90;;;3.60;68.00;;;-142.21;100.00;112049.66;6245793;23;20178;-75
2022/01/27 03:34:40;;;;;;;31.27;17.45;;;3.60;68.90;;;-142.21;100.00;112049.66;6244521;23;20178;-75
2022/01/27 03:37:08;;;;;;;30.38;16.70;;;3.70;68.30;;;-142.21;100.00;112049.66;6244861;22;20204;-75
2022/01/27 03:39:38;;;;;;;30.60;17.20;;;3.70;68.30;;;-142.21;100.00;112049.66;6245024;22;20540;-74
2022/01/27 03:42:07;;;;;;;27.30;16.23;;;3.70;68.10;;;-142.21;100.00;112049.66;6245497;23;20231;-75
2022/01/27 03:44:36;;;;;;;31.80;17.10;;;3.70;68.10;;;-142.21;100.00;112049.66;6244828;23;20494;-74
2022/01/27 03:47:06;;;;;;;30.48;17.35;;;3.70;67.90;;;-142.21;100.00;112049.66;6244938;23;20177;-74
2022/01/27 03:49:34;;;;;;;29.35;16.58;;;3.70;68.20;;;-142.21;100.00;112049.66;6244832;23;20153;-77
2022/01/27 03:52:02;;;;;;;30.98;17.17;;;3.80;68.00;;;-142.21;100.00;112049.66;6245103;23;20181;-77
2022/01/27 03:54:31;;;;;;;27.42;16.83;;;3.70;67.70;;;-142.21;100.00;112049.66;6244771;23;20208;-75
2022/01/27 03:56:59;;;;;;;28.85;17.05;;;3.70;68.50;;;-142.21;100.00;112049.66;6245127;23;20177;-74
2022/01/27 03:59:26;;;;;;;29.33;16.88;;;3.70;68.10;;;-142.21;100.00;112049.66;6245456;23;20177;-76
2022/01/27 04:01:56;;;;;;;28.75;17.33;;;3.70;68.00;;;-142.21;100.00;112049.66;6244058;22;20224;-75
2022/01/27 04:04:24;;;;;;;29.52;16.67;;;3.70;68.40;;;-142.21;100.00;112049.66;6245023;23;20177;-75
2022/01/27 04:06:52;;;;;;;26.85;15.82;;;3.60;68.20;;;-142.21;100.00;112049.66;6244277;23;20177;-74
2022/01/27 04:09:20;;;;;;;29.73;17.25;;;3.60;68.40;;;-142.21;100.00;112049.66;6244726;23;20675;-77
2022/01/27 04:11:48;;;;;;;27.15;14.73;;;3.60;68.70;;;-142.21;100.00;112049.66;6244449;23;20173;-75
2022/01/27 04:14:15;;;;;;;27.85;15.68;;;3.70;68.50;;;-142.21;100.00;112049.66;6245383;23;20177;-75
2022/01/27 04:16:43;;;;;;;28.20;16.00;;;3.70;68.00;;;-142.21;100.00;112049.66;6244758;23;20196;-75
2022/01/27 04:19:12;;;;;;;27.23;16.27;;;3.60;68.00;;;-142.21;100.00;112049.66;6244270;23;20231;-75
2022/01/27 04:21:39;;;;;;;30.45;16.77;;;3.70;68.10;;;-142.21;100.00;112049.66;6245259;23;20193;-76
2022/01/27 04:24:09;;;;;;;28.70;15.65;;;3.60;67.90;;;-142.21;100.00;112049.66;6244133;23;20177;-75
2022/01/27 04:26:42;;;;;;;26.65;15.73;;;3.60;68.10;;;-142.21;100.00;112049.66;6245138;23;20331;-74
2022/01/27 04:29:09;;;;;;;28.55;15.88;;;3.60;68.20;;;-142.21;100.00;112049.66;6243936;23;20193;-75
2022/01/27 04:31:40;;;;;;;28.17;16.35;;;3.60;68.30;;;-142.21;100.00;112049.66;6244621;22;20213;-75
2022/01/27 04:34:07;;;;;;;25.55;15.98;;;3.60;68.20;;;-142.21;100.00;112049.66;6244527;23;20176;-76
2022/01/27 04:36:37;;;;;;;27.50;16.13;;;3.60;68.10;;;-142.21;100.00;112049.66;6245056;23;20229;-74
2022/01/27 04:39:13;;;;;;;28.92;16.33;;;3.60;68.20;;;-142.21;100.00;112049.66;6243993;23;20172;-76
2022/01/27 04:41:46;;;;;;;27.75;16.40;;;3.70;68.50;;;-142.21;100.00;112049.66;6245126;23;20248;-75
2022/01/27 04:44:22;;;;;;;29.85;16.25;;;3.70;68.10;;;-142.21;100.00;112049.66;6244174;22;20173;-73
2022/01/27 04:46:55;;;;;;;27.63;16.05;;;3.70;68.10;;;-142.21;100.00;112049.66;6244639;23;20172;-75
2022/01/27 04:49:22;;;;;;;26.27;15.52;;;3.60;67.80;;;-142.21;100.00;112049.66;6244405;23;20219;-75
2022/01/27 04:51:51;;;;;;;25.95;15.82;;;3.60;68.00;;;-142.21;100.00;112049.66;6244921;23;20169;-79
2022/01/27 04:54:24;;;;;;;25.33;14.98;;;3.60;67.80;;;-142.21;100.00;112049.66;6243481;22;20173;-74
2022/01/27 04:56:52;;;;;;;24.90;15.40;;;3.60;68.00;;;-142.21;100.00;112049.66;6245443;23;20180;-76
2022/01/27 04:59:23;;;;;;;27.50;15.65;;;3.60;68.00;;;-142.21;100.00;112049.66;6244104;22;20177;-78
2022/01/27 05:01:55;;;;;;;26.08;15.57;;;3.50;67.60;;;-142.21;100.00;112049.66;6244463;23;20599;-80
2022/01/27 05:04:25;;;;;;;24.90;15.23;;;3.60;67.80;;;-142.21;100.00;112049.66;6244732;23;20162;-74
2022/01/27 05:06:54;;;;;;;27.80;16.75;;;3.60;67.90;;;-142.21;100.00;112049.66;6244493;23;20181;-75
2022/01/27 05:09:23;;;;;;;26.05;15.73;;;3.50;67.80;;;-142.21;100.00;112049.66;6244243;23;20254;-78
2022/01/27 05:11:54;;;;;;;28.70;15.82;;;3.60;67.90;;;-142.21;100.00;112049.66;6244701;23;20158;-76
2022/01/27 05:14:23;;;;;;;26.52;15.70;;;3.60;67.50;;;-142.21;100.00;112049.66;6244937;23;20245;-76
2022/01/27 05:16:51;;;;;;;27.48;16.02;;;3.50;67.60;;;-142.21;100.00;112049.66;6244793;23;20177;-75
2022/01/27 05:19:19;;;;;;;26.35;16.10;;;3.40;68.00;;;-142.21;100.00;112049.66;6244497;23;20177;-75
2022/01/27 05:21:46;;;;;;;26.40;15.57;;;3.40;67.90;;;-142.21;100.00;112049.66;6244416;23;20177;-74
2022/01/27 05:24:16;;;;;;;24.98;15.25;;;3.50;68.00;;;-142.21;100.00;112049.66;6244697;23;20170;-75
2022/01/27 05:26:44;;;;;;;25.23;15.48;;;3.50;67.70;;;-142.21;100.00;112049.66;6244047;23;20248;-75
2022/01/27 05:29:11;;;;;;;26.02;15.45;;;3.60;67.80;;;-142.21;100.00;112049.66;6244366;23;20177;-75
2022/01/27 05:31:39;;;;;;;25.35;15.52;;;3.60;67.10;;;-142.21;100.00;112049.66;6244137;23;20235;-76
2022/01/27 05:34:07;;;;;;;26.65;15.27;;;3.60;67.40;;;-142.21;100.00;112049.66;6244485;23;20181;-78
2022/01/27 05:36:35;;;;;;;26.55;16.02;;;3.60;67.50;;;-142.21;100.00;112049.66;6244693;22;20627;-77
2022/01/27 05:39:02;;;;;;;23.73;15.13;;;3.70;67.90;;;-142.21;100.00;112049.66;6243953;23;20639;-75
2022/01/27 05:41:32;;;;;;;24.85;15.27;;;3.70;67.60;;;-142.21;100.00;112049.66;6246520;23;20174;-74
2022/01/27 05:43:59;;;;;;;23.48;15.20;;;3.70;67.10;;;-142.21;100.00;112049.66;6245230;23;20197;-79
2022/01/27 05:46:26;;;;;;;26.65;15.32;;;3.60;67.80;;;-142.21;100.00;112049.66;6246260;23;20181;-79
2022/01/27 05:48:54;;;;;;;24.50;14.55;;;3.60;67.00;;;-142.21;100.00;112049.66;6245689;23;20177;-76
2022/01/27 05:51:22;;;;;;;27.42;15.60;;;3.60;67.10;;;-142.21;100.00;112049.66;6246492;23;20231;-75
2022/01/27 05:53:50;;;;;;;26.13;15.38;;;3.60;67.20;;;-142.21;100.00;112049.66;6246630;23;20231;-76
2022/01/27 05:56:17;;;;;;;28.05;17.00;;;3.70;67.10;;;-142.21;100.00;112049.66;6246517;23;20542;-77
2022/01/27 05:58:46;;;;;;;29.35;16.67;;;3.70;67.00;;;-142.21;100.00;112049.66;6246353;23;20193;-77
2022/01/27 06:01:13;;;;;;;27.88;16.83;;;3.70;67.30;;;-142.21;100.00;112049.66;6245964;23;20212;-76
2022/01/27 06:03:42;;;;;;;29.10;17.05;;;3.60;67.50;;;-142.21;100.00;112049.66;6245374;23;20221;-78
2022/01/27 06:06:09;;;;;;;26.85;16.25;;;3.60;67.60;;;-142.21;100.00;112049.66;6245704;23;20614;-79
2022/01/27 06:08:36;;;;;;;28.10;15.00;;;3.60;67.70;;;-142.21;100.00;112049.66;6246431;23;20196;-78
2022/01/27 06:11:04;;;;;;;26.83;16.25;;;3.50;67.50;;;-142.21;100.00;112049.66;6245223;22;20550;-78
2022/01/27 06:13:31;;;;;;;28.70;17.30;;;3.40;67.90;;;-142.21;100.00;112049.66;6246603;22;20173;-76
2022/01/27 06:16:02;;;;;;;28.75;15.88;;;3.40;67.80;;;-142.21;100.00;112049.66;6246398;23;20173;-77
2022/01/27 06:18:29;;;;;;;27.25;16.33;;;3.40;67.80;;;-142.21;100.00;112049.66;6245396;23;20201;-80
2022/01/27 06:21:00;;;;;;;26.98;15.18;;;3.50;68.00;;;-142.21;100.00;112049.66;6246157;22;20209;-77
2022/01/27 06:23:27;;;;;;;27.13;16.15;;;3.50;67.80;;;-142.21;100.00;112049.66;6245272;23;20205;-78
2022/01/27 06:25:55;;;;;;;27.88;16.40;;;3.50;67.70;;;-142.21;100.00;112049.66;6246316;23;20231;-76
2022/01/27 06:28:22;;;;;;;29.77;16.05;;;3.50;68.50;;;-142.21;100.00;112049.66;6245372;23;20208;-78
2022/01/27 06:30:49;;;;;;;26.95;16.35;;;3.50;67.60;;;-142.21;100.00;112049.66;6246723;23;20192;-79
2022/01/27 06:33:18;;;;;;;29.85;17.05;;;3.50;67.70;;;-142.21;100.00;112049.66;6245387;23;20177;-79
2022/01/27 06:36:06;;;;;;;29.42;16.85;;;3.40;67.80;;;-142.21;100.00;112049.66;6254773;23;20188;-80
2022/01/27 06:38:34;;;;;;;28.73;17.25;;;3.40;68.10;;;-142.21;100.00;112049.66;6247705;23;20610;-80
2022/01/27 06:41:01;;;;;;;29.92;16.85;;;3.40;68.30;;;-142.21;100.00;112049.66;6247145;23;20173;-77
2022/01/27 06:43:28;;;;;;;31.20;18.00;;;3.50;68.10;;;-142.21;100.00;112049.66;6245535;23;20193;-77
2022/01/27 06:45:56;;;;;;;27.73;16.70;;;3.40;68.30;;;-142.21;100.00;112049.66;6246506;23;20184;-79
2022/01/27 06:48:25;;;;;;;28.50;16.63;;;3.40;68.30;;;-142.21;100.00;112049.66;6254975;23;20177;-78
2022/01/27 06:50:54;;;;;;;28.25;16.55;;;3.40;68.30;;;-142.21;100.00;112049.66;6253700;22;20235;-74
2022/01/27 06:53:23;;;;;;;27.55;16.80;;;3.40;68.40;;;-142.21;100.00;112049.66;6246201;23;20201;-79
2022/01/27 06:55:51;;;;;;;27.70;16.67;;;3.50;68.60;;;-142.21;100.00;112049.66;6255987;23;20189;-79
2022/01/27 06:58:18;;;;;;;29.15;16.45;;;3.50;68.60;;;-142.21;100.00;112049.66;6260012;23;20208;-77
2022/01/27 07:00:46;;;;;;;26.08;15.50;;;3.60;68.10;;;-142.21;100.00;112049.66;6249691;23;20223;-76
2022/01/27 07:03:13;;;;;;;24.80;14.55;;;3.70;68.00;;;-142.21;100.00;112049.66;6245457;22;20201;-77
2022/01/27 07:05:42;;;;;;;24.42;15.13;;;3.70;67.60;;;-142.21;100.00;112049.66;6245243;23;20177;-75
2022/01/27 07:08:10;;;;;;;27.13;15.98;;;3.70;67.70;;;-142.21;100.00;112049.66;6244441;23;20173;-76
2022/01/27 07:10:37;;;;;;;25.65;14.95;;;3.60;67.50;;;-142.21;100.00;112049.66;6245495;23;20280;-78
2022/01/27 07:13:04;;;;;;;27.63;16.08;;;3.60;67.70;;;-142.21;100.00;112049.66;6245771;23;20548;-75
2022/01/27 07:15:32;;;;;;;23.08;13.75;;;3.60;67.60;;;-142.21;100.00;112049.66;6245700;23;20205;-75
2022/01/27 07:18:00;;;;;;;24.00;14.85;;;3.70;67.50;;;-142.21;100.00;112049.66;6245182;23;20211;-76
2022/01/27 07:20:27;;;;;;;22.17;12.27;;;3.60;67.60;;;-142.21;100.00;112049.66;6245717;22;20598;-77
2022/01/27 07:22:56;;;;;;;21.27;12.85;;;3.50;67.70;;;-142.21;100.00;112049.66;6244835;23;20235;-76
2022/01/27 07:25:23;;;;;;;23.55;14.05;;;3.60;67.90;;;-142.21;100.00;112049.66;6245245;23;20173;-75
2022/01/27 07:27:51;;;;;;;21.30;13.25;;;3.70;67.70;;;-142.21;100.00;112049.66;6245207;23;20219;-77
2022/01/27 07:30:18;;;;;;;18.45;12.15;;;3.60;67.50;;;-142.21;100.00;112049.66;6245615;23;20177;-77
2022/01/27 07:32:45;;;;;;;21.02;13.13;;;3.80;67.70;;;-142.21;100.00;112049.66;6245828;22;20557;-78
2022/01/27 07:35:13;;;;;;;19.35;12.02;;;3.60;67.20;;;-142.21;100.00;112049.66;6244921;23;20204;-76
2022/01/27 07:37:41;;;;;;;20.75;13.25;;;3.60;66.90;;;-142.21;100.00;112049.66;6246087;23;20184;-76
2022/01/27 07:40:48;;;;;;;19.05;11.90;;;3.60;66.90;;;-142.21;100.00;112049.66;6245229;23;20192;-77
2022/01/27 07:43:15;;;;;;;21.48;12.40;;;3.70;67.30;;;-142.21;100.00;112049.66;6245042;23;20235;-77
2022/01/27 07:45:42;;;;;;;19.52;11.43;;;3.70;67.00;;;-142.21;100.00;112049.66;6245245;23;20227;-76
2022/01/27 07:48:10;;;;;;;19.08;10.57;;;3.60;66.90;;;-142.21;100.00;112049.66;6245068;22;20179;-75
2022/01/27 07:50:37;;;;;;;18.10;11.45;;;3.70;67.10;;;-142.21;100.00;112049.66;6245618;23;20184;-76
2022/01/27 07:53:04;;;;;;;20.80;11.88;;;3.70;66.90;;;-142.21;100.00;112049.66;6245701;23;20177;-76
2022/01/27 07:55:32;;;;;;;19.15;10.27;;;3.60;66.90;;;-142.21;100.00;112049.66;6245708;23;20760;-76
2022/01/27 07:58:00;;;;;;;16.42;10.68;;;3.80;67.20;;;-142.21;100.00;112049.66;6246231;22;20180;-77
2022/01/27 08:00:28;;;;;;;14.68;9.32;;;3.50;66.90;;;-142.21;100.00;112049.66;6244524;23;20239;-76
2022/01/27 08:02:55;;;;;;;17.17;10.30;;;3.70;67.10;;;-142.21;100.00;112049.66;6245289;23;20193;-77
2022/01/27 08:05:23;;;;;;;12.90;9.07;;;3.70;67.00;;;-142.21;100.00;112049.66;6244665;23;20618;-76
2022/01/27 08:07:50;;;;;;;16.85;9.48;;;3.70;67.00;;;-142.21;100.00;112049.66;6245301;23;20177;-75
2022/01/27 08:10:18;;;;;;;14.35;9.30;;;3.70;67.00;;;-142.21;100.00;112049.66;6243026;23;20529;-78
2022/01/27 08:12:45;;;;;;;15.68;9.40;;;3.80;67.00;;;-142.21;100.00;112049.66;6245367;23;20252;-76
2022/01/27 08:15:18;;;;;;;14.55;9.77;;;3.80;67.20;;;-142.21;100.00;112049.66;6244943;23;20177;-77
2022/01/27 08:17:46;;;;;;;14.60;9.60;;;3.70;67.00;;;-142.21;100.00;112049.66;6244808;22;20184;-76
2022/01/27 08:20:14;;;;;;;18.00;10.45;;;3.70;67.70;;;-142.21;100.00;112049.66;6245685;22;20223;-76
2022/01/27 08:22:44;;;;;;;13.32;9.05;;;3.70;67.90;;;-142.21;100.00;112049.66;6244280;23;20227;-77
2022/01/27 08:25:12;;;;;;;16.60;10.27;;;3.70;67.50;;;-142.21;100.00;112049.66;6245661;22;20168;-76
2022/01/27 08:27:42;;;;;;;16.60;10.35;;;3.80;67.60;;;-142.21;100.00;112049.66;6244640;23;20239;-76
2022/01/27 08:30:14;;;;;;;17.70;10.88;;;3.80;67.50;;;-142.21;100.00;112049.66;6245080;23;20177;-76
2022/01/27 08:32:49;;;;;;;17.00;10.65;;;3.80;67.60;;;-142.21;100.00;112049.66;6244597;23;20249;-75
2022/01/27 08:35:19;;;;;;;18.70;10.98;;;3.80;67.80;;;-142.21;100.00;112049.66;6245647;23;20184;-76
2022/01/27 08:37:48;;;;;;;18.35;12.15;;;3.70;68.10;;;-142.21;100.00;112049.66;6244126;23;20177;-76
2022/01/27 08:40:17;;;;;;;20.95;12.40;;;3.70;68.30;;;-142.21;100.00;112049.66;6245161;23;20625;-76
2022/01/27 08:42:45;;;;;;;22.00;13.23;;;3.70;68.30;;;-142.21;100.00;112049.66;6243067;23;20506;-76
2022/01/27 08:45:16;;;;;;;20.45;12.30;;;3.80;68.10;;;-142.21;100.00;112049.66;6244915;22;20662;-77
2022/01/27 08:47:46;;;;;;;19.38;12.90;;;3.80;68.30;;;-142.21;100.00;112049.66;6243767;23;20509;-77
2022/01/27 08:50:15;;;;;;;22.05;12.68;;;3.80;68.30;;;-142.21;100.00;112049.66;6245291;22;20184;-77
2022/01/27 08:52:44;;;;;;;21.25;12.73;;;3.70;68.60;;;-142.21;100.00;112049.66;6244882;23;20216;-74
2022/01/27 08:55:13;;;;;;;21.88;13.30;;;3.70;68.40;;;-142.21;100.00;112049.66;6192383;23;20181;-76
2022/01/27 08:57:40;;;;;;;22.35;13.63;;;3.80;68.50;;;-142.21;100.00;112049.66;6245216;23;20185;-77
2022/01/27 09:00:12;;;;;;;23.75;14.65;;;3.70;68.50;;;-142.21;100.00;112049.66;6244273;22;20188;-78
2022/01/27 09:02:40;;;;;;;23.80;14.85;;;3.80;68.40;;;-142.21;100.00;112049.66;6245945;23;20200;-78
2022/01/27 09:05:10;;;;;;;25.13;15.20;;;3.60;68.50;;;-142.21;100.00;112049.66;6250470;22;20201;-78
2022/01/27 09:07:37;;;;;;;25.13;15.50;;;3.70;68.60;;;-142.21;100.00;112049.66;6260384;23;20195;-78
2022/01/27 09:10:07;;;;;;;28.95;16.83;;;3.70;68.60;;;-142.21;100.00;112049.66;6257659;23;20200;-78
2022/01/27 09:12:34;;;;;;;28.98;17.13;;;3.70;68.30;;;-142.21;100.00;112049.66;6260659;23;20177;-77
2022/01/27 09:15:03;;;;;;;29.92;17.48;;;3.80;68.00;;;-142.21;100.00;112049.66;6258546;22;20232;-78
2022/01/27 09:17:38;;;;;;;26.38;16.55;;;3.70;68.00;;;-142.21;100.00;112049.66;6262056;23;20559;-77
2022/01/27 09:20:11;;;;;;;25.77;16.52;;;3.80;68.30;;;-142.21;100.00;112049.66;6256544;23;20236;-77
2022/01/27 09:22:39;;;;;;;33.38;18.00;;;3.80;68.30;;;-142.21;100.00;112049.66;6256858;23;20239;-78
2022/01/27 09:25:16;;;;;;;31.13;18.40;;;3.80;68.10;;;-142.21;100.00;112049.66;6253666;23;20280;-77
2022/01/27 09:27:45;;;;;;;30.48;18.05;;;3.80;68.30;;;-142.21;100.00;112049.66;6250414;22;20165;-78
2022/01/27 09:30:17;;;;;;;32.75;18.23;;;3.80;68.30;;;-142.21;100.00;112049.66;6252815;23;20197;-78
2022/01/27 09:32:46;;;;;;;35.42;19.98;;;3.80;68.50;;;-142.21;100.00;112049.66;6249438;23;20181;-77
2022/01/27 09:35:15;;;;;;;35.85;19.50;;;3.70;68.60;;;-142.21;100.00;112049.66;6247969;22;20486;-75
2022/01/27 09:37:44;;;;;;;35.47;19.45;;;3.80;68.90;;;-142.21;100.00;112049.66;6246384;23;20178;-75
2022/01/27 09:40:13;;;;;;;34.33;18.77;;;3.80;68.90;;;-142.21;100.00;112049.66;6246722;23;20169;-75
2022/01/27 09:42:41;;;;;;;34.05;19.10;;;3.80;68.50;;;-142.21;100.00;112049.66;6245911;23;20622;-76
2022/01/27 09:45:10;;;;;;;36.40;19.65;;;3.80;68.20;;;-142.21;100.00;112049.66;6246650;22;20197;-76
2022/01/27 09:47:41;;;;;;;37.10;21.05;;;3.80;68.40;;;-142.21;100.00;112049.66;6246046;23;20177;-76
2022/01/27 09:50:25;;;;;;;34.20;19.30;;;3.80;68.50;;;-142.21;100.00;112049.66;6246971;23;20162;-77
2022/01/27 09:52:54;;;;;;;32.25;18.25;;;3.90;68.30;;;-142.21;100.00;112049.66;6244861;23;20181;-77
2022/01/27 09:55:22;;;;;;;39.85;19.60;;;4.00;68.10;;;-142.21;100.00;112049.66;6246463;23;20213;-75
2022/01/27 09:57:53;;;;;;;32.38;18.60;;;4.00;67.80;;;-142.21;100.00;112049.66;6245906;23;20177;-75
2022/01/27 10:00:22;;;;;;;32.55;18.48;;;4.00;67.50;;;-142.21;100.00;112049.66;6246881;22;20157;-77
2022/01/27 10:03:08;;;;;;;32.65;18.80;;;4.10;67.80;;;-142.21;100.00;112049.66;6245653;23;20733;-78
2022/01/27 10:05:37;;;;;;;31.77;16.80;;;4.10;67.70;;;-142.21;100.00;112049.66;6245156;23;20177;-78
2022/01/27 10:08:12;;;;;;;29.95;18.35;;;4.10;68.00;;;-142.21;100.00;112049.66;6245830;22;20177;-78
2022/01/27 10:10:42;;;;;;;35.20;19.05;;;4.20;67.60;;;-142.21;100.00;112049.66;6246200;23;20193;-77
2022/01/27 10:13:11;;;;;;;34.65;19.45;;;4.20;67.60;;;-142.21;100.00;112049.66;6245785;22;20184;-77
2022/01/27 10:15:42;;;;;;;31.23;17.92;;;4.30;67.50;;;-142.21;100.00;112049.66;6247170;23;20191;-78
2022/01/27 10:18:14;;;;;;;31.90;17.75;;;4.30;67.40;;;-142.21;100.00;112049.66;6244477;23;20695;-77
2022/01/27 10:20:44;;;;;;;35.47;19.33;;;4.30;67.30;;;-142.21;100.00;112049.66;6246583;23;20212;-77
2022/01/27 10:23:17;;;;;;;34.67;18.63;;;4.40;67.20;;;-142.21;100.00;112049.66;6245919;23;20173;-78